Impacts METAR Board
IDs:

KMGM - Montgomery/Dannely F, AL, US

Updated at: 1500 UTC 15 Oct 2018
Potential Impact None Slight Moderate High
Time 15/03Z 15/04Z 15/05Z 15/06Z 15/07Z 15/08Z 15/09Z 15/10Z 15/11Z 15/12Z 15/13Z 15/14Z 15/15Z
Temp71 68 68 67 66 65 64 64 64 64 68 72 77
Dewpt63 63 63 62 62 62 61 61 61 61 63 65 68
Altim30.07 30.07 30.06 30.07 30.08 30.07 30.06 30.07 30.07 30.09 30.11 30.12 30.13
VIS10 10 10 10 10 10 10 10 10 10 10 10 10
CIG-- -- -- -- -- -- -- -- -- -- 17 22 --
CoverCLRCLRCLRCLRCLRCLRCLRCLRCLRSCTBKNOVCFEW
FltCatVFRVFRVFRVFRVFRVFRVFRVFRVFRVFRMVFRMVFRVFR
WX--------------------------
WDir120100110800080100801200120170
WSpd4 4 3 3 0 0 6 3 5 3 0 3 5
WGst-- -- -- -- -- -- -- -- -- -- -- -- --
Raw hourly METARs
KMGM 150253Z 12004KT 10SM CLR 22/17 A3007 RMK AO2 SLP180 T02170172 53014
KMGM 150353Z AUTO 10004KT 10SM CLR 20/17 A3007 RMK AO2 SLP179 T02000172 TSNO
KMGM 150453Z AUTO 11003KT 10SM CLR 20/17 A3006 RMK AO2 SLP176 T02000172 TSNO
KMGM 150553Z AUTO 08003KT 10SM CLR 19/17 A3007 RMK AO2 SLP178 T01940167 10239 20189 403170156 55002 TSNO
KMGM 150653Z AUTO 00000KT 10SM CLR 19/17 A3008 RMK AO2 SLP182 T01890167 TSNO
KMGM 150753Z AUTO 00000KT 10SM CLR 18/17 A3007 RMK AO2 SLP180 T01830167 TSNO
KMGM 150853Z AUTO 08006KT 10SM CLR 18/16 A3006 RMK AO2 SLP177 T01780161 58001 TSNO
KMGM 150953Z AUTO 10003KT 10SM CLR 18/16 A3007 RMK AO2 SLP178 T01780161 TSNO
KMGM 151053Z 08005KT 10SM CLR 18/16 A3007 RMK AO2 SLP181 T01780161
KMGM 151153Z 12003KT 10SM SCT015 18/16 A3009 RMK AO2 SLP186 T01780161 10194 20172 53007
KMGM 151253Z 00000KT 10SM BKN017 BKN022 20/17 A3011 RMK AO2 SLP196 T02000172
KMGM 151353Z 12003KT 10SM BKN022 OVC026 22/18 A3012 RMK AO2 SLP198 T02220183
KMGM 151453Z 17005KT 10SM FEW009 25/20 A3013 RMK AO2 SLP198 T02500200 51004



Page loaded:  15:41 UTC  |   08:41 AM Pacific  |   09:41 AM Mountain  |   10:41 AM Central  |   11:41 AM Eastern

 

ADVISORIES

FORECASTS

FORECASTS

OBSERVATIONS

USER TOOLS

ABOUT US